Grand Rapids, Wisconsin
Current Conditions -  °F | °C
As of 2:54 PM on Saturday 20 Dec 2014 (Local Time) from KISW Reporting Station
Overcast Overcast  
Wind Chill: 25°   Ceiling: 1600
Heat Index: 31°   Visibility: 8mi
Dew Point: 24°   Wind: 6mph
Humidity: 76%   Direction: 140°SE
Pressure: 30.2"   Gusts: NA
Location:  44.3431°N, 89.7334°W
Report Text: KISW 202054Z AUTO 14005KT 8SM OVC016 M01/M04 A3020 RMK AO2 SLP242 T10061044 55007
Loading
Personal Weather Stations






























Interactive Weather Map New forecast layout! Learn more

10-Day Weather Forecast

Advertisements
Track Severe Weather on mobile